Time;durP1;ratioP1;P1;durP2;ratioP2;P2;SDS_P1;SDS_P2;PMS_P1;PMS_P2;Temp;Humidity;BMP_temperature;BMP_pressure;BME280_temperature;BME280_humidity;BME280_pressure;Samples;Min_cycle;Max_cycle;Signal;HPM_P1;HPM_P2
2023/06/21 00:02:05;;;;;;;6.85;4.82;;;;;;;21.49;82.60;99999.75;6269578;28;20057;-69
2023/06/21 00:05:09;;;;;;;6.53;4.97;;;;;;;21.40;83.49;100001.53;6269297;28;20080;-70
2023/06/21 00:08:12;;;;;;;8.27;5.40;;;;;;;21.31;84.19;100006.03;6269527;28;20139;-70
2023/06/21 00:11:13;;;;;;;8.20;5.72;;;;;;;21.27;85.63;99996.75;6269586;28;20055;-70
2023/06/21 00:14:14;;;;;;;6.97;5.23;;;;;;;21.27;86.53;99990.56;6269396;28;20045;-70
2023/06/21 00:17:15;;;;;;;8.50;5.43;;;;;;;21.27;87.04;99995.88;6265712;28;20040;-70
2023/06/21 00:20:15;;;;;;;6.53;4.93;;;;;;;21.22;86.11;99993.72;6269134;28;20124;-70
2023/06/21 00:23:18;;;;;;;8.13;5.97;;;;;;;21.24;85.74;99990.91;6269079;28;20047;-70
2023/06/21 00:26:18;;;;;;;7.47;5.38;;;;;;;21.22;85.24;99995.56;6268866;28;20044;-70
2023/06/21 00:29:19;;;;;;;11.43;5.97;;;;;;;21.28;84.32;99993.06;6268948;28;20092;-69
2023/06/21 00:32:20;;;;;;;8.63;5.63;;;;;;;21.14;84.70;99997.19;6268040;28;20106;-69
2023/06/21 00:35:20;;;;;;;7.77;5.87;;;;;;;21.15;84.77;100000.69;6267712;28;20094;-69
2023/06/21 00:38:26;;;;;;;8.53;5.87;;;;;;;21.21;83.88;100001.84;6268939;28;20055;-69
2023/06/21 00:41:27;;;;;;;10.18;6.35;;;;;;;21.19;83.30;100004.69;6267551;28;20057;-69
2023/06/21 00:44:27;;;;;;;15.63;5.93;;;;;;;21.17;83.14;100005.81;6267857;28;20052;-70
2023/06/21 00:47:29;;;;;;;11.30;5.97;;;;;;;21.04;83.33;100015.06;6267486;28;20091;-70
2023/06/21 00:50:30;;;;;;;7.03;5.25;;;;;;;20.92;82.16;100011.09;6267502;28;20427;-69
2023/06/21 00:53:31;;;;;;;8.53;5.77;;;;;;;20.93;83.16;100016.22;6268448;28;20048;-69
2023/06/21 00:56:35;;;;;;;8.30;6.10;;;;;;;20.82;84.71;100011.22;6267233;28;20052;-69
2023/06/21 00:59:36;;;;;;;8.20;5.70;;;;;;;20.87;85.27;100016.88;6267218;28;20060;-69
2023/06/21 01:02:37;;;;;;;11.60;5.73;;;;;;;20.79;86.04;100019.50;6266092;28;20045;-69
2023/06/21 01:05:39;;;;;;;7.70;5.88;;;;;;;20.77;86.50;100013.50;6267897;28;20053;-71
2023/06/21 01:08:51;;;;;;;8.57;5.88;;;;;;;20.84;86.89;100014.56;6267515;28;20045;-70
2023/06/21 01:11:58;;;;;;;10.95;5.90;;;;;;;20.85;86.89;100010.88;6268547;28;20085;-69
2023/06/21 01:15:03;;;;;;;7.75;5.25;;;;;;;20.89;86.03;100014.88;6267484;28;20051;-69
2023/06/21 01:18:05;;;;;;;9.95;5.45;;;;;;;20.83;85.12;100020.81;6268636;28;20051;-70
2023/06/21 01:21:08;;;;;;;8.35;5.78;;;;;;;20.79;84.51;100029.28;6268328;28;20053;-70
2023/06/21 01:24:25;;;;;;;10.80;6.07;;;;;;;20.72;84.95;100035.22;6268216;28;20144;-69
2023/06/21 01:27:29;;;;;;;8.70;5.63;;;;;;;20.71;84.51;100030.06;6268010;28;20059;-69
2023/06/21 01:30:32;;;;;;;7.80;5.90;;;;;;;20.71;84.72;100030.06;6267102;28;20053;-69
2023/06/21 01:33:34;;;;;;;9.45;5.68;;;;;;;20.69;84.76;100024.94;6268079;28;20091;-69
2023/06/21 01:36:35;;;;;;;;;;;;;;;20.65;86.26;100023.59;6266668;28;20405;-70
2023/06/21 01:39:36;;;;;;;10.27;5.72;;;;;;;20.60;86.62;100025.88;6272023;28;19921;-70
2023/06/21 01:42:37;;;;;;;8.10;6.33;;;;;;;20.58;85.83;100025.22;6273182;28;20135;-70
2023/06/21 01:45:38;;;;;;;9.68;6.03;;;;;;;20.58;86.01;100027.00;6272946;28;20049;-70
2023/06/21 01:48:40;;;;;;;11.40;6.57;;;;;;;20.50;87.10;100017.19;6272795;28;20060;-69
2023/06/21 01:51:42;;;;;;;12.55;6.60;;;;;;;20.40;88.46;100022.59;6272950;28;20556;-69
2023/06/21 01:54:44;;;;;;;10.70;5.88;;;;;;;20.33;89.47;100026.88;6272477;28;20481;-69
2023/06/21 01:57:45;;;;;;;11.73;6.45;;;;;;;20.32;89.44;100028.72;6271231;28;20048;-69
2023/06/21 02:00:46;;;;;;;7.43;5.85;;;;;;;20.32;89.96;100027.84;6272678;28;20132;-69
2023/06/21 02:03:52;;;;;;;8.77;6.80;;;;;;;20.21;90.04;100022.84;6271148;28;20040;-69
2023/06/21 02:06:54;;;;;;;11.82;6.65;;;;;;;20.21;91.97;100025.50;6272017;28;20049;-70
2023/06/21 02:09:55;;;;;;;9.07;6.30;;;;;;;20.22;91.99;100029.78;6271308;28;20060;-70
2023/06/21 02:12:56;;;;;;;7.77;5.97;;;;;;;20.22;92.66;100027.13;6270981;28;20538;-70
2023/06/21 02:15:57;;;;;;;10.23;6.47;;;;;;;20.21;93.56;100028.97;6270718;28;20657;-70
2023/06/21 02:18:57;;;;;;;10.47;6.50;;;;;;;20.20;92.21;100023.81;6272284;28;20049;-69
2023/06/21 02:22:02;;;;;;;11.57;7.13;;;;;;;20.12;92.91;100020.16;6271662;28;20053;-69
2023/06/21 02:25:03;;;;;;;9.93;6.40;;;;;;;20.01;91.39;100025.69;6269535;28;20477;-70
2023/06/21 02:28:04;;;;;;;10.40;6.97;;;;;;;20.02;89.95;100024.72;6270042;28;20056;-70
2023/06/21 02:31:05;;;;;;;9.67;6.73;;;;;;;20.09;89.24;100024.91;6270558;28;20135;-70
2023/06/21 02:34:06;;;;;;;8.27;6.33;;;;;;;20.10;89.58;100024.78;6270580;28;20065;-69
2023/06/21 02:37:11;;;;;;;10.97;6.73;;;;;;;20.10;90.76;100016.81;6270267;28;20045;-70
2023/06/21 02:40:13;;;;;;;11.73;6.82;;;;;;;20.17;89.70;100014.38;6269368;28;20083;-70
2023/06/21 02:43:13;;;;;;;10.80;7.57;;;;;;;20.23;88.70;100011.09;6271475;28;20759;-69
2023/06/21 02:46:14;;;;;;;9.23;6.57;;;;;;;20.21;88.49;100017.53;6271282;28;20049;-70
2023/06/21 02:49:15;;;;;;;10.13;7.50;;;;;;;20.23;89.29;100027.00;6269857;28;20056;-70
2023/06/21 02:52:16;;;;;;;9.60;6.97;;;;;;;20.09;90.04;100019.63;6271490;28;20091;-70
2023/06/21 02:55:17;;;;;;;10.87;7.27;;;;;;;20.03;90.45;100022.88;6271157;28;20103;-70
2023/06/21 02:58:17;;;;;;;10.40;6.30;;;;;;;19.92;92.25;100016.84;6270050;28;20049;-69
2023/06/21 03:01:18;;;;;;;12.20;7.43;;;;;;;19.93;92.21;100026.47;6270129;28;20181;-69
2023/06/21 03:04:19;;;;;;;10.00;6.97;;;;;;;19.91;92.15;100024.94;6270645;28;20051;-70
2023/06/21 03:07:20;;;;;;;14.73;6.60;;;;;;;19.88;92.56;100035.88;6269788;28;20136;-70
2023/06/21 03:10:23;;;;;;;9.80;6.87;;;;;;;19.82;93.77;100041.78;6270905;28;20049;-70
2023/06/21 03:13:24;;;;;;;13.55;7.35;;;;;;;19.87;95.12;100044.78;6269486;28;20068;-70
2023/06/21 03:16:28;;;;;;;13.10;7.37;;;;;;;20.01;94.52;100035.44;6271050;28;20041;-70
2023/06/21 03:19:30;;;;;;;14.88;7.68;;;;;;;20.09;94.03;100031.03;6269412;28;20140;-70
2023/06/21 03:22:31;;;;;;;13.82;7.70;;;;;;;20.16;94.08;100035.72;6270756;28;20053;-70
2023/06/21 03:25:32;;;;;;;11.40;7.20;;;;;;;20.20;92.79;100037.91;6270678;28;20103;-70
2023/06/21 03:28:33;;;;;;;11.30;7.60;;;;;;;20.24;87.66;100041.91;6270433;28;20057;-70
2023/06/21 03:31:34;;;;;;;12.07;6.97;;;;;;;20.33;88.55;100056.03;6269073;28;20542;-70
2023/06/21 03:34:35;;;;;;;16.25;8.05;;;;;;;20.35;89.01;100050.59;6270261;28;20080;-69
2023/06/21 03:37:35;;;;;;;10.30;7.20;;;;;;;20.45;88.47;100051.31;6268878;28;20040;-70
2023/06/21 03:40:36;;;;;;;9.93;7.23;;;;;;;20.67;87.93;100056.09;6270213;28;20167;-70
2023/06/21 03:43:37;;;;;;;11.87;6.73;;;;;;;20.71;89.58;100064.53;6268995;28;20052;-70
2023/06/21 03:46:38;;;;;;;12.13;7.13;;;;;;;20.81;86.92;100057.28;6269085;28;20132;-70
2023/06/21 03:49:39;;;;;;;9.50;7.00;;;;;;;20.90;86.20;100058.16;6268978;28;20045;-70
2023/06/21 03:52:40;;;;;;;14.27;6.97;;;;;;;21.01;84.84;100065.81;6268458;28;20102;-70
2023/06/21 03:55:43;;;;;;;9.97;7.27;;;;;;;21.05;82.69;100059.19;6269775;28;20056;-69
2023/06/21 03:58:44;;;;;;;8.98;6.88;;;;;;;21.17;82.52;100067.69;6268672;28;20091;-69
2023/06/21 04:01:45;;;;;;;10.20;6.90;;;;;;;21.23;83.39;100069.69;6268924;28;20444;-70
2023/06/21 04:04:45;;;;;;;12.97;7.40;;;;;;;21.37;82.92;100072.69;6268279;28;20049;-70
2023/06/21 04:07:49;;;;;;;9.70;6.73;;;;;;;21.47;77.98;100073.41;6269375;28;20040;-69
2023/06/21 04:10:49;;;;;;;10.02;7.03;;;;;;;21.53;78.41;100078.88;6269319;28;20049;-70
2023/06/21 04:13:50;;;;;;;11.33;6.87;;;;;;;21.61;78.56;100078.06;6268217;28;20049;-71
2023/06/21 04:16:51;;;;;;;10.60;7.47;;;;;;;21.77;79.84;100079.91;6267962;28;20124;-70
2023/06/21 04:19:52;;;;;;;14.87;7.60;;;;;;;21.76;80.43;100080.91;6267916;28;20148;-69
2023/06/21 04:22:52;;;;;;;11.27;6.50;;;;;;;21.95;80.94;100090.38;6268099;28;20054;-70
2023/06/21 04:25:53;;;;;;;10.37;6.90;;;;;;;22.05;77.00;100082.22;6268865;28;20083;-69
2023/06/21 04:28:54;;;;;;;10.77;6.10;;;;;;;22.20;74.69;100085.06;6268061;28;20049;-70
2023/06/21 04:31:55;;;;;;;11.03;6.03;;;;;;;22.31;75.19;100090.03;6267879;28;20052;-69
2023/06/21 04:34:56;;;;;;;9.02;6.03;;;;;;;22.45;73.48;100091.16;6267708;28;20049;-69
2023/06/21 04:37:57;;;;;;;10.07;6.50;;;;;;;22.51;72.44;100087.84;6269017;28;20056;-69
2023/06/21 04:40:58;;;;;;;9.20;5.87;;;;;;;22.60;72.28;100097.44;6267481;28;20477;-69
2023/06/21 04:43:58;;;;;;;7.70;5.87;;;;;;;22.47;71.65;100087.34;6269006;28;20501;-70
2023/06/21 04:47:00;;;;;;;7.30;5.07;;;;;;;22.54;69.98;100092.78;6267426;28;20091;-70
2023/06/21 04:50:01;;;;;;;7.03;5.13;;;;;;;22.59;70.40;100098.44;6268643;28;20073;-70
2023/06/21 04:53:03;;;;;;;8.65;5.30;;;;;;;22.61;69.55;100100.91;6268832;28;20528;-70
2023/06/21 04:56:08;;;;;;;11.98;5.40;;;;;;;22.79;68.39;100090.06;6267198;28;20049;-69
2023/06/21 04:59:11;;;;;;;7.65;5.40;;;;;;;22.84;67.19;100095.72;6267444;28;20107;-70
2023/06/21 05:02:12;;;;;;;7.90;5.63;;;;;;;22.93;66.97;100092.81;6268273;28;20551;-70
2023/06/21 05:05:13;;;;;;;10.43;4.83;;;;;;;22.94;67.41;100086.50;6266784;28;20076;-70
2023/06/21 05:08:13;;;;;;;8.90;5.43;;;;;;;22.92;68.93;100085.03;6266223;28;20049;-70
2023/06/21 05:11:14;;;;;;;6.70;5.20;;;;;;;22.89;68.95;100082.72;6268592;28;20085;-70
2023/06/21 05:14:15;;;;;;;7.13;5.70;;;;;;;22.93;69.91;100084.84;6273741;28;20047;-71
2023/06/21 05:17:16;;;;;;;10.30;6.10;;;;;;;23.00;69.76;100086.81;6268327;28;20041;-70
2023/06/21 05:20:19;;;;;;;9.57;6.68;;;;;;;23.26;74.30;100089.22;6270885;28;20546;-71
2023/06/21 05:23:22;;;;;;;11.23;5.95;;;;;;;23.38;70.13;100089.66;6270580;28;20420;-71
2023/06/21 05:26:25;;;;;;;11.90;5.78;;;;;;;23.34;70.04;100089.16;6271725;28;20041;-70
2023/06/21 05:29:25;;;;;;;8.55;5.97;;;;;;;23.49;69.72;100087.41;6272033;28;20049;-70
2023/06/21 05:32:26;;;;;;;7.30;5.37;;;;;;;23.54;68.19;100093.03;6270116;28;20439;-71
2023/06/21 05:35:32;;;;;;;8.03;5.87;;;;;;;23.45;66.74;100091.44;6271508;28;20565;-71
2023/06/21 05:38:32;;;;;;;7.43;5.40;;;;;;;23.60;66.01;100096.81;6271917;28;20068;-70
2023/06/21 05:41:33;;;;;;;8.20;5.47;;;;;;;23.63;63.96;100085.78;6270473;28;20702;-71
2023/06/21 05:44:34;;;;;;;7.80;5.17;;;;;;;23.79;62.85;100092.06;6271553;28;20048;-70
2023/06/21 05:47:35;;;;;;;8.07;5.23;;;;;;;23.91;61.76;100096.78;6270524;28;20053;-70
2023/06/21 05:50:38;;;;;;;6.30;4.50;;;;;;;24.13;62.90;100089.75;6271541;28;20049;-70
2023/06/21 05:53:40;;;;;;;8.55;5.10;;;;;;;24.29;64.46;100091.41;6271153;28;20052;-71
2023/06/21 05:56:41;;;;;;;7.65;4.80;;;;;;;24.42;64.25;100092.63;6269956;28;20041;-71
2023/06/21 05:59:43;;;;;;;7.43;5.03;;;;;;;24.42;60.28;100095.28;6271074;28;20510;-71
2023/06/21 06:02:45;;;;;;;;;;;;;;;24.64;61.45;100098.91;6270589;28;20053;-71
2023/06/21 06:05:46;;;;;;;7.90;4.90;;;;;;;24.77;60.50;100109.78;6269771;28;20277;-71
2023/06/21 06:08:46;;;;;;;9.68;4.55;;;;;;;25.02;58.12;100117.47;6269856;28;20041;-71
2023/06/21 06:11:47;;;;;;;11.23;4.85;;;;;;;25.40;57.34;100115.50;6271258;28;20056;-70
2023/06/21 06:14:48;;;;;;;13.43;4.93;;;;;;;25.32;57.09;100113.75;6271036;28;20099;-70
2023/06/21 06:17:49;;;;;;;8.37;4.03;;;;;;;25.20;56.73;100115.22;6270357;28;20049;-71
2023/06/21 06:20:52;;;;;;;5.57;4.03;;;;;;;25.33;56.05;100109.25;6271430;28;20049;-71
2023/06/21 06:23:53;;;;;;;5.43;4.20;;;;;;;25.60;57.18;100106.88;6270723;28;20132;-71
2023/06/21 06:26:54;;;;;;;5.53;4.50;;;;;;;25.74;55.75;100109.47;6271155;28;20056;-70
2023/06/21 06:29:57;;;;;;;5.67;4.00;;;;;;;26.10;55.83;100107.75;6271347;28;20049;-71
2023/06/21 06:33:00;;;;;;;6.60;4.15;;;;;;;26.31;55.78;100117.56;6270979;28;20052;-71
2023/06/21 06:36:02;;;;;;;10.60;4.47;;;;;;;26.29;54.29;100114.25;6271290;28;20084;-71
2023/06/21 06:39:03;;;;;;;5.45;3.90;;;;;;;26.42;53.72;100116.19;6271194;28;20053;-71
2023/06/21 06:42:04;;;;;;;6.05;4.15;;;;;;;26.60;53.53;100123.75;6270913;28;20155;-71
2023/06/21 06:45:06;;;;;;;6.00;3.83;;;;;;;26.79;54.80;100120.38;6269699;28;20055;-70
2023/06/21 06:48:07;;;;;;;4.90;3.58;;;;;;;27.03;54.94;100120.91;6270909;28;20049;-71
2023/06/21 06:51:08;;;;;;;5.40;4.20;;;;;;;27.08;52.70;100113.09;6270849;28;20053;-70
2023/06/21 06:54:09;;;;;;;6.70;4.00;;;;;;;27.20;51.18;100121.34;6270406;28;20041;-71
2023/06/21 06:57:09;;;;;;;5.20;4.07;;;;;;;27.29;50.40;100123.69;6268565;28;20048;-71
2023/06/21 07:00:12;;;;;;;6.53;4.07;;;;;;;27.43;52.52;100124.56;6269722;28;20055;-70
2023/06/21 07:03:13;;;;;;;5.60;4.10;;;;;;;27.70;49.00;100127.31;6269905;28;20052;-71
2023/06/21 07:06:14;;;;;;;9.73;4.07;;;;;;;27.72;48.98;100134.09;6269449;28;20053;-71
2023/06/21 07:09:15;;;;;;;5.53;4.65;;;;;;;27.83;48.78;100143.41;6269456;28;20045;-70
2023/06/21 07:12:18;;;;;;;6.82;4.00;;;;;;;27.99;51.21;100134.16;6268492;28;20051;-70
2023/06/21 07:15:19;;;;;;;6.78;4.38;;;;;;;28.30;48.44;100144.25;6268076;28;20053;-70
2023/06/21 07:18:19;;;;;;;6.93;4.75;;;;;;;28.30;48.00;100140.75;6268409;28;20558;-71
2023/06/21 07:21:20;;;;;;;8.73;4.83;;;;;;;28.47;51.31;100141.16;6269649;28;20049;-70
2023/06/21 07:24:21;;;;;;;8.48;5.43;;;;;;;28.71;48.17;100135.16;6268156;28;20282;-71
2023/06/21 07:27:22;;;;;;;7.13;4.70;;;;;;;28.84;48.91;100139.66;6269232;28;20179;-71
2023/06/21 07:30:22;;;;;;;8.52;4.28;;;;;;;29.09;48.48;100133.56;6267837;28;20076;-70
2023/06/21 07:33:23;;;;;;;5.75;4.25;;;;;;;29.07;46.07;100132.94;6267746;28;20059;-71
2023/06/21 07:36:25;;;;;;;6.57;4.05;;;;;;;29.21;45.17;100134.56;6266847;28;20053;-70
2023/06/21 07:39:26;;;;;;;7.47;4.32;;;;;;;29.58;47.15;100134.78;6267572;28;20444;-71
2023/06/21 07:42:29;;;;;;;6.00;4.47;;;;;;;29.83;45.76;100132.16;6268926;28;20059;-71
2023/06/21 07:45:29;;;;;;;5.30;3.95;;;;;;;30.06;40.31;100130.75;6267685;28;20049;-71
2023/06/21 07:48:30;;;;;;;4.57;3.50;;;;;;;30.08;41.75;100142.94;6268618;28;20049;-71
2023/06/21 07:51:31;;;;;;;6.95;3.75;;;;;;;29.98;41.63;100139.09;6267747;28;20045;-70
2023/06/21 07:54:32;;;;;;;5.18;3.20;;;;;;;30.13;40.92;100143.09;6267041;28;20057;-71
2023/06/21 07:57:32;;;;;;;6.53;3.75;;;;;;;30.30;39.78;100145.28;6268500;28;20532;-71
2023/06/21 08:00:36;;;;;;;5.45;3.47;;;;;;;30.58;40.39;100150.19;6268660;28;20135;-71
2023/06/21 08:03:36;;;;;;;5.35;3.35;;;;;;;30.44;40.09;100149.47;6268112;28;20045;-71
2023/06/21 08:06:37;;;;;;;5.93;3.92;;;;;;;30.43;40.70;100144.31;6266885;28;20114;-72
2023/06/21 08:09:38;;;;;;;4.00;3.53;;;;;;;30.52;40.87;100134.91;6266945;28;20045;-72
2023/06/21 08:12:38;;;;;;;5.53;3.85;;;;;;;30.49;41.48;100151.50;6268022;28;20071;-70
2023/06/21 08:15:39;;;;;;;3.95;3.42;;;;;;;30.70;40.37;100144.84;6267366;28;20094;-71
2023/06/21 08:18:40;;;;;;;3.78;3.22;;;;;;;31.14;39.95;100145.63;6268566;28;20052;-71
2023/06/21 08:21:44;;;;;;;6.75;3.42;;;;;;;30.69;38.15;100141.34;6266800;28;20052;-71
2023/06/21 08:24:45;;;;;;;5.65;3.72;;;;;;;30.90;39.86;100141.97;6268127;28;20052;-71
2023/06/21 08:27:45;;;;;;;4.57;3.13;;;;;;;30.88;37.17;100144.06;6267634;28;20504;-72
2023/06/21 08:30:46;;;;;;;3.67;3.17;;;;;;;30.86;39.30;100138.06;6268250;28;20045;-72
2023/06/21 08:33:47;;;;;;;3.65;3.22;;;;;;;30.98;39.00;100140.88;6267883;28;20052;-70
2023/06/21 08:36:47;;;;;;;4.45;3.40;;;;;;;31.04;38.76;100143.47;6266355;28;20056;-70
2023/06/21 08:39:49;;;;;;;3.75;3.25;;;;;;;30.90;38.33;100139.28;6267864;28;20576;-71
2023/06/21 08:42:49;;;;;;;3.28;2.97;;;;;;;31.24;40.64;100142.41;6267536;28;20049;-71
2023/06/21 08:45:51;;;;;;;4.68;3.03;;;;;;;31.27;39.04;100144.63;6267334;28;20515;-71
2023/06/21 08:48:57;;;;;;;4.55;3.20;;;;;;;31.19;39.55;100132.28;6266109;28;20048;-71
2023/06/21 08:51:59;;;;;;;7.60;2.92;;;;;;;31.41;38.78;100138.00;6267515;28;20151;-70
2023/06/21 08:55:05;;;;;;;4.80;3.00;;;;;;;31.60;39.04;100138.00;6267209;28;20344;-70
2023/06/21 08:58:12;;;;;;;4.53;2.85;;;;;;;31.80;41.49;100133.13;6266994;28;20138;-70
2023/06/21 09:01:15;;;;;;;3.63;3.05;;;;;;;31.65;37.87;100140.78;6267671;28;20188;-71
2023/06/21 09:04:20;;;;;;;3.40;2.88;;;;;;;31.84;36.94;100136.19;6266201;28;20509;-70
2023/06/21 09:07:22;;;;;;;2.88;2.58;;;;;;;31.62;39.42;100133.19;6266960;28;20045;-70
2023/06/21 09:10:27;;;;;;;4.47;3.17;;;;;;;31.91;40.73;100139.56;6266054;28;20053;-72
2023/06/21 09:13:31;;;;;;;7.93;3.22;;;;;;;32.25;37.92;100137.19;6266010;28;20064;-71
2023/06/21 09:16:32;;;;;;;4.18;2.88;;;;;;;32.26;36.99;100138.81;6265910;28;20045;-71
2023/06/21 09:19:36;;;;;;;;;;;;;;;32.28;37.80;100140.22;6266133;28;20049;-71
2023/06/21 09:22:38;;;;;;;3.60;2.60;;;;;;;32.18;36.87;100150.78;6265694;28;20388;-71
2023/06/21 09:25:39;;;;;;;6.75;2.90;;;;;;;32.52;37.05;100137.53;6267257;28;20057;-71
2023/06/21 09:28:40;;;;;;;;;;;;;;;32.32;36.14;100146.78;6266194;28;20436;-71
2023/06/21 09:31:41;;;;;;;5.32;2.72;;;;;;;32.27;35.87;100152.09;6267267;28;20011;-71
2023/06/21 09:34:42;;;;;;;4.35;2.70;;;;;;;32.56;35.81;100151.41;6267074;28;20049;-71
2023/06/21 09:37:43;;;;;;;4.65;3.22;;;;;;;32.52;37.25;100138.34;6265691;28;20052;-71
2023/06/21 09:40:44;;;;;;;;;;;;;;;32.72;37.14;100148.81;6266861;28;20053;-71
2023/06/21 09:43:47;;;;;;;3.55;2.88;;;;;;;32.45;40.81;100153.00;6267607;28;19970;-71
2023/06/21 09:46:49;;;;;;;4.70;3.17;;;;;;;32.77;36.97;100150.78;6267381;28;20049;-71
2023/06/21 09:49:50;;;;;;;5.97;2.85;;;;;;;32.71;36.10;100149.84;6266467;28;20060;-71
2023/06/21 09:52:50;;;;;;;;;;;;;;;32.93;36.96;100160.03;6266639;28;20124;-71
2023/06/21 09:55:51;;;;;;;5.93;3.20;;;;;;;32.99;36.65;100152.84;6265792;28;20316;-71
2023/06/21 09:58:52;;;;;;;;;;;;;;;32.94;36.63;100156.25;6268264;28;20131;-71
2023/06/21 10:01:53;;;;;;;;;;;;;;;33.32;36.11;100142.19;6270470;28;19931;-71
2023/06/21 10:04:54;;;;;;;3.70;2.80;;;;;;;33.41;34.13;100148.03;6271965;28;20364;-71
2023/06/21 10:07:56;;;;;;;;;;;;;;;33.26;35.38;100148.56;6272084;28;20056;-71
2023/06/21 10:10:56;;;;;;;3.25;2.78;;;;;;;33.36;34.61;100147.09;6270529;28;19920;-71
2023/06/21 10:13:57;;;;;;;;;;;;;;;33.50;34.03;100143.88;6271183;28;20513;-71
2023/06/21 10:16:58;;;;;;;3.77;2.97;;;;;;;33.64;33.97;100146.28;6271534;28;19967;-71
2023/06/21 10:19:59;;;;;;;3.40;2.60;;;;;;;33.80;35.16;100147.38;6272148;28;20060;-71
2023/06/21 10:23:02;;;;;;;4.22;2.90;;;;;;;33.82;34.43;100148.78;6271539;28;20045;-71
2023/06/21 10:26:07;;;;;;;3.95;3.17;;;;;;;33.63;37.30;100148.19;6270210;28;20052;-71
2023/06/21 10:29:10;;;;;;;3.70;3.05;;;;;;;33.62;37.92;100145.72;6270904;28;20049;-71
2023/06/21 10:32:11;;;;;;;3.40;2.92;;;;;;;33.96;35.65;100151.19;6270842;28;20045;-72
2023/06/21 10:35:19;;;;;;;3.70;3.17;;;;;;;33.32;34.38;100154.91;6270494;28;20131;-70
2023/06/21 10:38:29;;;;;;;3.60;3.08;;;;;;;33.32;35.75;100141.38;6270237;28;20045;-71
2023/06/21 10:41:31;;;;;;;3.43;3.00;;;;;;;33.76;34.36;100149.75;6269225;28;20064;-71
2023/06/21 10:44:33;;;;;;;3.38;2.90;;;;;;;33.50;36.66;100151.16;6270032;28;20754;-71
2023/06/21 10:47:35;;;;;;;3.38;2.80;;;;;;;33.62;36.04;100154.66;6269299;28;20075;-71
2023/06/21 10:50:39;;;;;;;3.75;2.83;;;;;;;33.93;35.60;100155.16;6269954;28;20516;-70
2023/06/21 10:53:41;;;;;;;5.10;2.97;;;;;;;33.77;35.81;100158.69;6269933;28;20053;-71
2023/06/21 10:56:42;;;;;;;3.13;2.60;;;;;;;34.36;35.15;100147.47;6268986;28;20057;-71
2023/06/21 10:59:43;;;;;;;4.35;2.83;;;;;;;34.00;35.04;100147.72;6268474;28;20139;-71
2023/06/21 11:02:45;;;;;;;4.20;3.15;;;;;;;33.74;34.90;100151.06;6269768;28;20106;-71
2023/06/21 11:05:45;;;;;;;5.55;2.75;;;;;;;33.99;35.43;100153.38;6269986;28;20511;-71
2023/06/21 11:08:46;;;;;;;13.50;2.65;;;;;;;34.21;37.08;100154.31;6269498;28;20052;-71
2023/06/21 11:11:52;;;;;;;6.22;3.03;;;;;;;33.83;34.71;100160.41;6269683;28;20088;-70
2023/06/21 11:14:54;;;;;;;3.28;2.80;;;;;;;33.76;36.18;100162.47;6269939;28;20049;-70
2023/06/21 11:17:59;;;;;;;4.38;3.33;;;;;;;33.60;36.11;100151.34;6269472;28;20048;-71
2023/06/21 11:21:05;;;;;;;3.50;2.85;;;;;;;33.60;33.95;100145.91;6267955;28;20207;-71
2023/06/21 11:24:10;;;;;;;5.68;2.95;;;;;;;33.87;37.78;100154.28;6264239;28;20238;-71
2023/06/21 11:27:10;;;;;;;3.17;2.80;;;;;;;34.44;35.14;100152.47;6264973;28;20758;-71
2023/06/21 11:30:17;;;;;;;4.82;3.30;;;;;;;34.83;36.24;100144.34;6267615;28;20103;-70
2023/06/21 11:33:19;;;;;;;8.55;3.38;;;;;;;34.82;36.43;100138.13;6267165;28;20436;-71
2023/06/21 11:36:25;;;;;;;4.07;2.95;;;;;;;35.50;34.93;100133.19;6266983;28;20526;-71
2023/06/21 11:39:26;;;;;;;4.22;2.90;;;;;;;34.59;35.90;100124.75;6268160;28;20052;-71
2023/06/21 11:42:34;;;;;;;4.10;2.92;;;;;;;33.87;36.56;100121.81;6268195;28;20368;-71
2023/06/21 11:45:36;;;;;;;4.20;3.08;;;;;;;33.31;37.34;100126.19;6267330;28;20123;-71
2023/06/21 11:48:39;;;;;;;4.88;2.70;;;;;;;33.60;36.68;100126.19;6267287;28;20056;-71
2023/06/21 11:51:51;;;;;;;3.10;2.80;;;;;;;33.28;37.68;100119.41;6268432;28;20053;-71
2023/06/21 11:54:52;;;;;;;4.57;3.15;;;;;;;33.16;38.18;100124.03;6266799;28;20137;-72
2023/06/21 11:57:57;;;;;;;4.60;3.10;;;;;;;33.05;39.00;100130.25;6268568;28;20040;-72
2023/06/21 12:00:58;;;;;;;4.05;2.92;;;;;;;32.84;38.02;100124.44;6267037;28;20102;-71
2023/06/21 12:03:59;;;;;;;4.85;3.30;;;;;;;33.05;38.18;100128.41;6266843;28;20056;-71
2023/06/21 12:07:00;;;;;;;4.25;3.28;;;;;;;33.36;37.31;100120.91;6268164;28;20057;-71
2023/06/21 12:10:01;;;;;;;4.28;3.17;;;;;;;33.47;37.63;100120.00;6266778;28;20051;-71
2023/06/21 12:13:05;;;;;;;6.75;2.90;;;;;;;33.69;35.62;100117.44;6268025;28;20045;-71
2023/06/21 12:16:09;;;;;;;4.90;3.13;;;;;;;34.39;40.83;100117.16;6266732;28;20175;-71
2023/06/21 12:19:10;;;;;;;3.65;3.00;;;;;;;34.80;37.19;100113.16;6267631;28;20596;-71
2023/06/21 12:22:13;;;;;;;3.17;2.65;;;;;;;34.82;36.54;100110.16;6267371;28;20094;-71
2023/06/21 12:25:14;;;;;;;3.97;3.05;;;;;;;35.21;35.75;100116.38;6267659;28;20557;-71
2023/06/21 12:28:16;;;;;;;4.15;2.90;;;;;;;35.37;37.70;100105.66;6266288;28;20041;-71
2023/06/21 12:31:18;;;;;;;3.30;3.00;;;;;;;35.26;34.52;100110.16;6264959;28;20048;-71
2023/06/21 12:34:18;;;;;;;4.13;3.10;;;;;;;34.78;36.47;100104.47;6267585;28;20045;-71
2023/06/21 12:37:20;;;;;;;8.30;3.30;;;;;;;34.32;34.15;100104.63;6265862;28;20428;-71
2023/06/21 12:40:21;;;;;;;3.95;3.17;;;;;;;34.48;35.43;100100.25;6267434;28;20052;-71
2023/06/21 12:43:39;;;;;;;2.90;2.63;;;;;;;34.55;34.56;100091.13;6267685;28;20179;-71
2023/06/21 12:46:40;;;;;;;3.10;2.80;;;;;;;34.81;34.94;100086.88;6265615;28;20136;-70
2023/06/21 12:49:46;;;;;;;7.40;3.20;;;;;;;34.68;36.63;100085.38;6267662;28;20148;-71
2023/06/21 12:53:00;;;;;;;4.47;2.88;;;;;;;34.40;34.69;100086.31;6266062;28;20400;-71
2023/06/21 12:56:08;;;;;;;4.35;2.95;;;;;;;34.10;35.11;100087.53;6266197;28;20064;-71
2023/06/21 12:59:09;;;;;;;4.15;3.05;;;;;;;34.26;33.44;100089.38;6267230;28;20500;-71
2023/06/21 13:02:10;;;;;;;11.68;3.15;;;;;;;34.47;34.79;100089.66;6267005;28;20053;-71
2023/06/21 13:05:10;;;;;;;4.38;3.08;;;;;;;34.49;35.82;100085.66;6267538;28;20067;-71
2023/06/21 13:08:11;;;;;;;8.55;3.30;;;;;;;34.61;33.97;100071.97;6267879;28;20048;-71
2023/06/21 13:11:14;;;;;;;6.43;2.90;;;;;;;34.49;37.33;100076.69;6267511;28;20057;-71
2023/06/21 13:14:15;;;;;;;4.63;2.55;;;;;;;34.76;35.01;100073.25;6266768;28;20045;-71
2023/06/21 13:17:16;;;;;;;3.97;3.00;;;;;;;34.66;35.57;100072.06;6266533;28;20136;-71
2023/06/21 13:20:19;;;;;;;4.15;3.13;;;;;;;34.40;35.55;100075.50;6266239;28;20135;-72
2023/06/21 13:23:19;;;;;;;5.30;3.28;;;;;;;34.77;32.06;100059.44;6266811;28;20080;-71
2023/06/21 13:26:22;;;;;;;4.07;3.20;;;;;;;33.63;32.85;100060.81;6267530;28;20071;-71
2023/06/21 13:29:22;;;;;;;5.72;3.28;;;;;;;33.61;35.76;100052.94;6267485;28;20045;-71
2023/06/21 13:32:23;;;;;;;4.10;3.05;;;;;;;33.82;37.15;100055.97;6266920;28;20107;-71
2023/06/21 13:35:24;;;;;;;4.68;3.05;;;;;;;34.26;37.42;100059.59;6271224;28;20048;-72
2023/06/21 13:38:26;;;;;;;4.47;2.92;;;;;;;34.23;36.78;100064.72;6272509;28;20049;-71
2023/06/21 13:41:26;;;;;;;4.40;2.92;;;;;;;34.39;35.56;100068.41;6271371;28;20056;-71
2023/06/21 13:44:27;;;;;;;3.70;2.75;;;;;;;34.58;34.84;100064.34;6270966;28;20076;-71
2023/06/21 13:47:28;;;;;;;3.65;2.65;;;;;;;34.42;34.66;100062.53;6270994;28;20053;-71
2023/06/21 13:50:29;;;;;;;3.47;2.90;;;;;;;34.60;34.31;100059.50;6270847;28;20049;-71
2023/06/21 13:53:29;;;;;;;4.25;2.70;;;;;;;34.18;35.61;100060.03;6272346;28;20077;-71
2023/06/21 13:56:30;;;;;;;4.15;3.00;;;;;;;34.21;38.16;100053.31;6272171;28;20045;-71
2023/06/21 13:59:34;;;;;;;4.30;3.00;;;;;;;34.40;34.45;100049.22;6271703;28;20485;-71
2023/06/21 14:02:35;;;;;;;4.05;2.78;;;;;;;34.36;32.57;100056.22;6270807;28;20053;-71
2023/06/21 14:05:36;;;;;;;3.40;2.88;;;;;;;34.35;37.29;100051.88;6270359;28;20061;-72
2023/06/21 14:08:36;;;;;;;3.75;2.97;;;;;;;34.23;34.50;100041.16;6270412;28;20071;-71